Pagrindinis puslapis
METAR-TAF:

METAR-TAF

Oro uostai :

Buriram, Tailandas

platuma: 15-13-46N, ilguma: 103-15-04E, Aukštis: 180 m

Dabartinis oras

Ataskaita buvo paskelbta 7 valandos ir 51 minutes, ne 13:00 UTC
Ramus vėjas
Temperatūra 25°C
Drėgmė 100%
Slėgis 1010 hPa
Matomumas: 9000 m
Išsisklaidę debesys ne aukštis 2500 ft
Apsiniaukę ne aukštis 9000 ft

METAR: VTUO 201300Z 00000KT 9000 SCT025 OVC090 25/25 Q1010 NOSIG

Laikas: 03:51 (20:51 UTC)

Prognozė

Ataskaita buvo paskelbta 3 valandos ir 51 minutes, ne 17:00 UTC
Prognozė galioja nuo 20 metu 18 UTC su 21 metu 18 UTC
Vėjas 5 kt iš Rytų/Šiaurės Rytų
Matomumas: 9000 m
Išsisklaidę debesys ne aukštis 3000 ft
Laikinai
nuo 21 metu 02 UTC su 21 metu 15 UTC
Vėjas 10 kt iš Rytų
Matomumas: 5000 m
Mažai debesys ne aukštis 1800 ft, Liūtiniai kamuoliniai debesys.
Išsisklaidę debesys ne aukštis 2500 ft
Su prošvaistėmis ne aukštis 10000 ft
perkūnija, lietus

TAF: VTUO 201700Z 2018/2118 06005KT 9000 SCT030 TEMPO 2102/2115 09010KT 5000 TSRA FEW018CB SCT025 BKN100

Orai ataskaitas ir orų prognozės (METAR, TAF).

turimą stotys yra geltonos ir raudonos taškus žemėlapyje.

Perkelti pele per norėdami pamatyti stoties vardą.

Tada spustelėkite, norėdami matyti oro stebėjimo ir prognozės.

Norėdami pakeisti žemėlapį: spustelėkite ant žalios mygtukų su juodo kryžiaus žemyn,; žalią mygtuką su brūkšneliu, jei norite nutolinti; arba žalių rodyklių gretimoms žemėlapius.


METAR-TAF: